sensor_id;sensor_type;location;lat;lon;timestamp;temperature;humidity
14172;DHT22;7165;52.388;4.928;2022-12-07T00:01:28;5.50;99.90
14172;DHT22;7165;52.388;4.928;2022-12-07T00:03:57;5.40;99.90
14172;DHT22;7165;52.388;4.928;2022-12-07T00:06:31;5.30;99.90
14172;DHT22;7165;52.388;4.928;2022-12-07T00:08:58;5.30;99.90
14172;DHT22;7165;52.388;4.928;2022-12-07T00:11:26;5.20;99.90
14172;DHT22;7165;52.388;4.928;2022-12-07T00:13:55;5.30;99.90
14172;DHT22;7165;52.388;4.928;2022-12-07T00:16:24;5.30;99.90
14172;DHT22;7165;52.388;4.928;2022-12-07T00:18:50;5.30;99.90
14172;DHT22;7165;52.388;4.928;2022-12-07T00:21:21;5.30;99.90
14172;DHT22;7165;52.388;4.928;2022-12-07T00:23:50;5.30;99.90
14172;DHT22;7165;52.388;4.928;2022-12-07T00:26:19;5.30;99.90
14172;DHT22;7165;52.388;4.928;2022-12-07T00:28:46;5.30;99.90
14172;DHT22;7165;52.388;4.928;2022-12-07T00:31:24;5.30;99.90
14172;DHT22;7165;52.388;4.928;2022-12-07T00:33:51;5.40;99.90
14172;DHT22;7165;52.388;4.928;2022-12-07T00:36:20;5.30;99.90
14172;DHT22;7165;52.388;4.928;2022-12-07T00:38:46;5.30;99.90
14172;DHT22;7165;52.388;4.928;2022-12-07T00:41:15;5.30;99.90
14172;DHT22;7165;52.388;4.928;2022-12-07T00:43:43;5.40;99.90
14172;DHT22;7165;52.388;4.928;2022-12-07T00:46:11;5.40;99.90
14172;DHT22;7165;52.388;4.928;2022-12-07T00:48:39;5.40;99.90
14172;DHT22;7165;52.388;4.928;2022-12-07T00:51:06;5.40;99.90
14172;DHT22;7165;52.388;4.928;2022-12-07T00:53:34;5.40;99.90
14172;DHT22;7165;52.388;4.928;2022-12-07T00:56:05;5.50;99.90
14172;DHT22;7165;52.388;4.928;2022-12-07T00:58:31;5.40;99.90
14172;DHT22;7165;52.388;4.928;2022-12-07T01:01:00;5.40;99.90
14172;DHT22;7165;52.388;4.928;2022-12-07T01:03:27;5.40;99.90
14172;DHT22;7165;52.388;4.928;2022-12-07T01:05:56;5.30;99.90
14172;DHT22;7165;52.388;4.928;2022-12-07T01:08:24;5.30;99.90
14172;DHT22;7165;52.388;4.928;2022-12-07T01:10:59;5.40;99.90
14172;DHT22;7165;52.388;4.928;2022-12-07T01:13:26;5.40;99.90
14172;DHT22;7165;52.388;4.928;2022-12-07T01:15:56;5.50;99.90
14172;DHT22;7165;52.388;4.928;2022-12-07T01:18:23;5.60;99.90
14172;DHT22;7165;52.388;4.928;2022-12-07T01:20:59;5.60;99.90
14172;DHT22;7165;52.388;4.928;2022-12-07T01:23:25;5.60;99.90
14172;DHT22;7165;52.388;4.928;2022-12-07T01:25:55;5.60;99.90
14172;DHT22;7165;52.388;4.928;2022-12-07T01:28:22;5.60;99.90
14172;DHT22;7165;52.388;4.928;2022-12-07T01:30:55;5.60;99.90
14172;DHT22;7165;52.388;4.928;2022-12-07T01:33:22;5.70;99.90
14172;DHT22;7165;52.388;4.928;2022-12-07T01:35:49;5.70;99.90
14172;DHT22;7165;52.388;4.928;2022-12-07T01:38:17;5.60;99.90
14172;DHT22;7165;52.388;4.928;2022-12-07T01:40:43;5.60;99.90
14172;DHT22;7165;52.388;4.928;2022-12-07T01:43:15;5.60;99.90
14172;DHT22;7165;52.388;4.928;2022-12-07T01:45:43;5.60;99.90
14172;DHT22;7165;52.388;4.928;2022-12-07T01:48:12;5.60;99.90
14172;DHT22;7165;52.388;4.928;2022-12-07T01:50:40;5.50;99.90
14172;DHT22;7165;52.388;4.928;2022-12-07T01:53:09;5.50;99.90
14172;DHT22;7165;52.388;4.928;2022-12-07T01:55:42;5.40;99.90
14172;DHT22;7165;52.388;4.928;2022-12-07T01:58:11;5.30;99.90
14172;DHT22;7165;52.388;4.928;2022-12-07T02:00:38;5.30;99.90
14172;DHT22;7165;52.388;4.928;2022-12-07T02:03:08;5.20;99.90
14172;DHT22;7165;52.388;4.928;2022-12-07T02:05:38;5.10;99.90
14172;DHT22;7165;52.388;4.928;2022-12-07T02:08:07;5.10;99.90
14172;DHT22;7165;52.388;4.928;2022-12-07T02:10:36;5.10;99.90
14172;DHT22;7165;52.388;4.928;2022-12-07T02:13:06;5.10;99.90
14172;DHT22;7165;52.388;4.928;2022-12-07T02:15:45;5.00;99.90
14172;DHT22;7165;52.388;4.928;2022-12-07T02:18:17;5.10;99.90
14172;DHT22;7165;52.388;4.928;2022-12-07T02:20:54;5.20;99.90
14172;DHT22;7165;52.388;4.928;2022-12-07T02:23:40;5.20;99.90
14172;DHT22;7165;52.388;4.928;2022-12-07T02:29:23;5.40;99.90
14172;DHT22;7165;52.388;4.928;2022-12-07T02:31:56;5.40;99.90
14172;DHT22;7165;52.388;4.928;2022-12-07T02:34:33;5.40;99.90
14172;DHT22;7165;52.388;4.928;2022-12-07T02:37:05;5.40;99.90
14172;DHT22;7165;52.388;4.928;2022-12-07T02:39:39;5.40;99.90
14172;DHT22;7165;52.388;4.928;2022-12-07T02:42:12;5.30;99.90
14172;DHT22;7165;52.388;4.928;2022-12-07T02:44:42;5.30;99.90
14172;DHT22;7165;52.388;4.928;2022-12-07T02:47:12;5.20;99.90
14172;DHT22;7165;52.388;4.928;2022-12-07T02:49:40;5.20;99.90
14172;DHT22;7165;52.388;4.928;2022-12-07T02:52:07;5.10;99.90
14172;DHT22;7165;52.388;4.928;2022-12-07T02:54:33;5.10;99.90
14172;DHT22;7165;52.388;4.928;2022-12-07T02:57:04;5.10;99.90
14172;DHT22;7165;52.388;4.928;2022-12-07T02:59:48;5.00;99.90
14172;DHT22;7165;52.388;4.928;2022-12-07T03:02:22;5.00;99.90
14172;DHT22;7165;52.388;4.928;2022-12-07T03:04:59;5.00;99.90
14172;DHT22;7165;52.388;4.928;2022-12-07T03:07:33;5.00;99.90
14172;DHT22;7165;52.388;4.928;2022-12-07T03:10:03;5.00;99.90
14172;DHT22;7165;52.388;4.928;2022-12-07T03:12:36;5.00;99.90
14172;DHT22;7165;52.388;4.928;2022-12-07T03:15:12;5.10;99.90
14172;DHT22;7165;52.388;4.928;2022-12-07T03:17:42;5.20;99.90
14172;DHT22;7165;52.388;4.928;2022-12-07T03:20:12;5.20;99.90
14172;DHT22;7165;52.388;4.928;2022-12-07T03:22:42;5.30;99.90
14172;DHT22;7165;52.388;4.928;2022-12-07T03:25:11;5.20;99.90
14172;DHT22;7165;52.388;4.928;2022-12-07T03:27:43;5.20;99.90
14172;DHT22;7165;52.388;4.928;2022-12-07T03:30:17;5.20;99.90
14172;DHT22;7165;52.388;4.928;2022-12-07T03:32:47;5.10;99.90
14172;DHT22;7165;52.388;4.928;2022-12-07T03:35:19;5.00;99.90
14172;DHT22;7165;52.388;4.928;2022-12-07T03:37:51;5.00;99.90
14172;DHT22;7165;52.388;4.928;2022-12-07T03:40:23;4.90;99.90
14172;DHT22;7165;52.388;4.928;2022-12-07T03:42:53;4.80;99.90
14172;DHT22;7165;52.388;4.928;2022-12-07T03:45:30;4.80;99.90
14172;DHT22;7165;52.388;4.928;2022-12-07T03:48:03;4.70;99.90
14172;DHT22;7165;52.388;4.928;2022-12-07T03:50:38;4.70;99.90
14172;DHT22;7165;52.388;4.928;2022-12-07T03:53:11;4.70;99.90
14172;DHT22;7165;52.388;4.928;2022-12-07T03:55:42;4.80;99.90
14172;DHT22;7165;52.388;4.928;2022-12-07T03:58:11;5.00;99.90
14172;DHT22;7165;52.388;4.928;2022-12-07T04:00:40;5.10;99.90
14172;DHT22;7165;52.388;4.928;2022-12-07T04:03:06;5.10;99.90
14172;DHT22;7165;52.388;4.928;2022-12-07T04:05:33;5.10;99.90
14172;DHT22;7165;52.388;4.928;2022-12-07T04:08:00;5.10;99.90
14172;DHT22;7165;52.388;4.928;2022-12-07T04:10:27;5.10;99.90
14172;DHT22;7165;52.388;4.928;2022-12-07T04:12:53;5.00;99.90
14172;DHT22;7165;52.388;4.928;2022-12-07T04:15:20;5.00;99.90
14172;DHT22;7165;52.388;4.928;2022-12-07T04:17:48;4.90;99.90
14172;DHT22;7165;52.388;4.928;2022-12-07T04:20:16;4.90;99.90
14172;DHT22;7165;52.388;4.928;2022-12-07T04:22:42;4.90;99.90
14172;DHT22;7165;52.388;4.928;2022-12-07T04:25:09;4.80;99.90
14172;DHT22;7165;52.388;4.928;2022-12-07T04:27:36;4.80;99.90
14172;DHT22;7165;52.388;4.928;2022-12-07T04:30:03;4.80;99.90
14172;DHT22;7165;52.388;4.928;2022-12-07T04:32:30;4.70;99.90
14172;DHT22;7165;52.388;4.928;2022-12-07T04:34:58;4.70;99.90
14172;DHT22;7165;52.388;4.928;2022-12-07T04:37:24;4.70;99.90
14172;DHT22;7165;52.388;4.928;2022-12-07T04:39:51;4.70;99.90
14172;DHT22;7165;52.388;4.928;2022-12-07T04:42:18;4.70;99.90
14172;DHT22;7165;52.388;4.928;2022-12-07T04:44:44;4.70;99.90
14172;DHT22;7165;52.388;4.928;2022-12-07T04:47:11;4.70;99.90
14172;DHT22;7165;52.388;4.928;2022-12-07T04:49:38;4.70;99.90
14172;DHT22;7165;52.388;4.928;2022-12-07T04:52:06;4.70;99.90
14172;DHT22;7165;52.388;4.928;2022-12-07T04:54:32;4.80;99.90
14172;DHT22;7165;52.388;4.928;2022-12-07T04:56:59;4.90;99.90
14172;DHT22;7165;52.388;4.928;2022-12-07T04:59:26;4.90;99.90
14172;DHT22;7165;52.388;4.928;2022-12-07T05:01:53;5.00;99.90
14172;DHT22;7165;52.388;4.928;2022-12-07T05:04:19;5.00;99.90
14172;DHT22;7165;52.388;4.928;2022-12-07T05:06:46;5.10;99.90
14172;DHT22;7165;52.388;4.928;2022-12-07T05:09:14;5.10;99.90
14172;DHT22;7165;52.388;4.928;2022-12-07T05:11:40;5.10;99.90
14172;DHT22;7165;52.388;4.928;2022-12-07T05:14:11;5.10;99.90
14172;DHT22;7165;52.388;4.928;2022-12-07T05:16:38;5.10;99.90
14172;DHT22;7165;52.388;4.928;2022-12-07T05:19:05;5.00;99.90
14172;DHT22;7165;52.388;4.928;2022-12-07T05:21:32;5.00;99.90
14172;DHT22;7165;52.388;4.928;2022-12-07T05:23:59;5.10;99.90
14172;DHT22;7165;52.388;4.928;2022-12-07T05:26:27;5.10;99.90
14172;DHT22;7165;52.388;4.928;2022-12-07T05:28:55;5.10;99.90
14172;DHT22;7165;52.388;4.928;2022-12-07T05:31:23;5.10;99.90
14172;DHT22;7165;52.388;4.928;2022-12-07T05:33:50;5.10;99.90
14172;DHT22;7165;52.388;4.928;2022-12-07T05:36:17;5.10;99.90
14172;DHT22;7165;52.388;4.928;2022-12-07T05:38:44;5.10;99.90
14172;DHT22;7165;52.388;4.928;2022-12-07T05:41:13;5.10;99.90
14172;DHT22;7165;52.388;4.928;2022-12-07T05:43:55;5.00;99.90
14172;DHT22;7165;52.388;4.928;2022-12-07T05:46:22;5.00;99.90
14172;DHT22;7165;52.388;4.928;2022-12-07T05:48:49;4.90;99.90
14172;DHT22;7165;52.388;4.928;2022-12-07T05:51:16;4.80;99.90
14172;DHT22;7165;52.388;4.928;2022-12-07T05:53:42;4.80;99.90
14172;DHT22;7165;52.388;4.928;2022-12-07T05:56:09;4.80;99.90
14172;DHT22;7165;52.388;4.928;2022-12-07T05:58:36;4.70;99.90
14172;DHT22;7165;52.388;4.928;2022-12-07T06:01:21;4.70;99.90
14172;DHT22;7165;52.388;4.928;2022-12-07T06:03:48;4.70;99.90
14172;DHT22;7165;52.388;4.928;2022-12-07T06:06:15;4.70;99.90
14172;DHT22;7165;52.388;4.928;2022-12-07T06:08:41;4.80;99.90
14172;DHT22;7165;52.388;4.928;2022-12-07T06:11:08;4.80;99.90
14172;DHT22;7165;52.388;4.928;2022-12-07T06:13:52;4.90;99.90
14172;DHT22;7165;52.388;4.928;2022-12-07T06:16:19;5.00;99.90
14172;DHT22;7165;52.388;4.928;2022-12-07T06:18:47;5.10;99.90
14172;DHT22;7165;52.388;4.928;2022-12-07T06:21:13;5.20;99.90
14172;DHT22;7165;52.388;4.928;2022-12-07T06:23:40;5.20;99.90
14172;DHT22;7165;52.388;4.928;2022-12-07T06:26:07;5.20;99.90
14172;DHT22;7165;52.388;4.928;2022-12-07T06:28:33;5.20;99.90
14172;DHT22;7165;52.388;4.928;2022-12-07T06:31:01;5.20;99.90
14172;DHT22;7165;52.388;4.928;2022-12-07T06:33:28;5.30;99.90
14172;DHT22;7165;52.388;4.928;2022-12-07T06:35:56;5.20;99.90
14172;DHT22;7165;52.388;4.928;2022-12-07T06:38:23;5.10;99.90
14172;DHT22;7165;52.388;4.928;2022-12-07T06:40:50;5.10;99.90
14172;DHT22;7165;52.388;4.928;2022-12-07T06:43:16;5.00;99.90
14172;DHT22;7165;52.388;4.928;2022-12-07T06:45:43;4.90;99.90
14172;DHT22;7165;52.388;4.928;2022-12-07T06:48:10;4.90;99.90
14172;DHT22;7165;52.388;4.928;2022-12-07T06:50:36;4.80;99.90
14172;DHT22;7165;52.388;4.928;2022-12-07T06:53:04;4.70;99.90
14172;DHT22;7165;52.388;4.928;2022-12-07T06:55:31;4.70;99.90
14172;DHT22;7165;52.388;4.928;2022-12-07T06:57:58;4.60;99.90
14172;DHT22;7165;52.388;4.928;2022-12-07T07:00:24;4.50;99.90
14172;DHT22;7165;52.388;4.928;2022-12-07T07:02:51;4.50;99.90
14172;DHT22;7165;52.388;4.928;2022-12-07T07:05:18;4.40;99.90
14172;DHT22;7165;52.388;4.928;2022-12-07T07:07:46;4.30;99.90
14172;DHT22;7165;52.388;4.928;2022-12-07T07:10:15;4.30;99.90
14172;DHT22;7165;52.388;4.928;2022-12-07T07:12:41;4.30;99.90
14172;DHT22;7165;52.388;4.928;2022-12-07T07:15:09;4.30;99.90
14172;DHT22;7165;52.388;4.928;2022-12-07T07:17:37;4.30;99.90
14172;DHT22;7165;52.388;4.928;2022-12-07T07:20:04;4.20;99.90
14172;DHT22;7165;52.388;4.928;2022-12-07T07:22:31;4.20;99.90
14172;DHT22;7165;52.388;4.928;2022-12-07T07:24:58;4.20;99.90
14172;DHT22;7165;52.388;4.928;2022-12-07T07:27:26;4.20;99.90
14172;DHT22;7165;52.388;4.928;2022-12-07T07:29:53;4.40;99.90
14172;DHT22;7165;52.388;4.928;2022-12-07T07:32:19;4.70;99.90
14172;DHT22;7165;52.388;4.928;2022-12-07T07:34:47;4.80;99.90
14172;DHT22;7165;52.388;4.928;2022-12-07T07:37:14;4.90;99.90
14172;DHT22;7165;52.388;4.928;2022-12-07T07:39:40;4.90;99.90
14172;DHT22;7165;52.388;4.928;2022-12-07T07:42:07;4.90;99.90
14172;DHT22;7165;52.388;4.928;2022-12-07T07:44:35;5.00;99.90
14172;DHT22;7165;52.388;4.928;2022-12-07T07:47:03;5.00;99.90
14172;DHT22;7165;52.388;4.928;2022-12-07T07:49:29;4.90;99.90
14172;DHT22;7165;52.388;4.928;2022-12-07T07:51:56;4.90;99.90
14172;DHT22;7165;52.388;4.928;2022-12-07T07:54:23;4.90;99.90
14172;DHT22;7165;52.388;4.928;2022-12-07T07:56:49;4.80;99.90
14172;DHT22;7165;52.388;4.928;2022-12-07T07:59:16;4.90;99.90
14172;DHT22;7165;52.388;4.928;2022-12-07T08:01:44;4.90;99.90
14172;DHT22;7165;52.388;4.928;2022-12-07T08:04:11;5.00;99.90
14172;DHT22;7165;52.388;4.928;2022-12-07T08:06:38;5.00;99.90
14172;DHT22;7165;52.388;4.928;2022-12-07T08:09:04;5.00;99.90
14172;DHT22;7165;52.388;4.928;2022-12-07T08:11:31;5.00;99.90
14172;DHT22;7165;52.388;4.928;2022-12-07T08:13:58;5.00;99.90
14172;DHT22;7165;52.388;4.928;2022-12-07T08:16:25;5.00;99.90
14172;DHT22;7165;52.388;4.928;2022-12-07T08:18:53;5.00;99.90
14172;DHT22;7165;52.388;4.928;2022-12-07T08:21:20;5.00;99.90
14172;DHT22;7165;52.388;4.928;2022-12-07T08:23:46;5.00;99.90
14172;DHT22;7165;52.388;4.928;2022-12-07T08:26:15;5.00;99.90
14172;DHT22;7165;52.388;4.928;2022-12-07T08:28:42;5.00;99.90
14172;DHT22;7165;52.388;4.928;2022-12-07T08:31:12;5.00;99.90
14172;DHT22;7165;52.388;4.928;2022-12-07T08:33:40;5.00;99.90
14172;DHT22;7165;52.388;4.928;2022-12-07T08:36:10;5.10;99.90
14172;DHT22;7165;52.388;4.928;2022-12-07T08:38:38;5.10;99.90
14172;DHT22;7165;52.388;4.928;2022-12-07T08:41:06;5.10;99.90
14172;DHT22;7165;52.388;4.928;2022-12-07T08:43:33;5.20;99.90
14172;DHT22;7165;52.388;4.928;2022-12-07T08:46:06;5.20;99.90
14172;DHT22;7165;52.388;4.928;2022-12-07T08:48:38;5.30;99.90
14172;DHT22;7165;52.388;4.928;2022-12-07T08:51:07;5.40;99.90
14172;DHT22;7165;52.388;4.928;2022-12-07T08:53:35;5.50;99.90
14172;DHT22;7165;52.388;4.928;2022-12-07T08:56:02;5.50;99.90
14172;DHT22;7165;52.388;4.928;2022-12-07T08:58:29;5.60;99.90
14172;DHT22;7165;52.388;4.928;2022-12-07T09:00:56;5.60;99.90
14172;DHT22;7165;52.388;4.928;2022-12-07T09:03:23;5.60;99.90
14172;DHT22;7165;52.388;4.928;2022-12-07T09:05:49;5.70;99.90
14172;DHT22;7165;52.388;4.928;2022-12-07T09:08:17;5.70;99.90
14172;DHT22;7165;52.388;4.928;2022-12-07T09:10:44;5.70;99.90
14172;DHT22;7165;52.388;4.928;2022-12-07T09:13:11;5.70;99.90
14172;DHT22;7165;52.388;4.928;2022-12-07T09:15:38;5.80;99.90
14172;DHT22;7165;52.388;4.928;2022-12-07T09:18:04;5.80;99.90
14172;DHT22;7165;52.388;4.928;2022-12-07T09:20:31;5.90;99.90
14172;DHT22;7165;52.388;4.928;2022-12-07T09:22:58;5.90;99.90
14172;DHT22;7165;52.388;4.928;2022-12-07T09:25:26;5.90;99.90
14172;DHT22;7165;52.388;4.928;2022-12-07T09:27:56;5.90;99.90
14172;DHT22;7165;52.388;4.928;2022-12-07T09:30:23;5.90;99.90
14172;DHT22;7165;52.388;4.928;2022-12-07T09:32:50;5.90;99.90
14172;DHT22;7165;52.388;4.928;2022-12-07T09:35:16;5.80;99.90
14172;DHT22;7165;52.388;4.928;2022-12-07T09:37:43;5.80;99.90
14172;DHT22;7165;52.388;4.928;2022-12-07T09:40:10;5.90;99.90
14172;DHT22;7165;52.388;4.928;2022-12-07T09:42:41;5.90;99.90
14172;DHT22;7165;52.388;4.928;2022-12-07T09:45:13;6.00;99.90
14172;DHT22;7165;52.388;4.928;2022-12-07T09:47:40;6.10;99.90
14172;DHT22;7165;52.388;4.928;2022-12-07T09:50:13;6.10;99.90
14172;DHT22;7165;52.388;4.928;2022-12-07T09:52:41;6.20;99.90
14172;DHT22;7165;52.388;4.928;2022-12-07T09:55:11;6.20;99.90
14172;DHT22;7165;52.388;4.928;2022-12-07T09:57:39;6.30;99.90
14172;DHT22;7165;52.388;4.928;2022-12-07T10:00:12;6.50;99.90
14172;DHT22;7165;52.388;4.928;2022-12-07T10:02:40;6.70;99.90
14172;DHT22;7165;52.388;4.928;2022-12-07T10:05:13;6.80;99.90
14172;DHT22;7165;52.388;4.928;2022-12-07T10:07:40;6.90;99.90
14172;DHT22;7165;52.388;4.928;2022-12-07T10:10:15;6.90;99.90
14172;DHT22;7165;52.388;4.928;2022-12-07T10:12:55;6.90;99.90
14172;DHT22;7165;52.388;4.928;2022-12-07T10:15:22;6.80;99.90
14172;DHT22;7165;52.388;4.928;2022-12-07T10:17:51;6.80;99.90
14172;DHT22;7165;52.388;4.928;2022-12-07T10:20:21;6.70;99.90
14172;DHT22;7165;52.388;4.928;2022-12-07T10:22:56;6.70;99.90
14172;DHT22;7165;52.388;4.928;2022-12-07T10:25:27;6.60;99.90
14172;DHT22;7165;52.388;4.928;2022-12-07T10:28:15;6.50;99.90
14172;DHT22;7165;52.388;4.928;2022-12-07T10:30:55;6.50;99.90
14172;DHT22;7165;52.388;4.928;2022-12-07T10:33:31;6.50;99.90
14172;DHT22;7165;52.388;4.928;2022-12-07T10:35:59;6.60;99.90
14172;DHT22;7165;52.388;4.928;2022-12-07T10:38:27;6.70;99.90
14172;DHT22;7165;52.388;4.928;2022-12-07T10:41:06;6.70;99.90
14172;DHT22;7165;52.388;4.928;2022-12-07T10:43:34;6.70;99.90
14172;DHT22;7165;52.388;4.928;2022-12-07T10:49:04;6.80;99.90
14172;DHT22;7165;52.388;4.928;2022-12-07T10:51:38;6.90;99.90
14172;DHT22;7165;52.388;4.928;2022-12-07T10:54:12;7.00;99.90
14172;DHT22;7165;52.388;4.928;2022-12-07T10:57:01;7.10;99.90
14172;DHT22;7165;52.388;4.928;2022-12-07T10:59:45;7.10;99.90
14172;DHT22;7165;52.388;4.928;2022-12-07T11:02:25;7.20;99.90
14172;DHT22;7165;52.388;4.928;2022-12-07T11:05:04;7.30;99.90
14172;DHT22;7165;52.388;4.928;2022-12-07T11:07:42;7.40;99.90
14172;DHT22;7165;52.388;4.928;2022-12-07T11:10:16;7.50;99.90
14172;DHT22;7165;52.388;4.928;2022-12-07T11:12:54;7.50;99.90
14172;DHT22;7165;52.388;4.928;2022-12-07T11:15:28;7.60;99.90
14172;DHT22;7165;52.388;4.928;2022-12-07T11:18:06;7.70;99.90
14172;DHT22;7165;52.388;4.928;2022-12-07T11:20:41;7.70;99.90
14172;DHT22;7165;52.388;4.928;2022-12-07T11:23:17;7.80;99.90
14172;DHT22;7165;52.388;4.928;2022-12-07T11:25:52;7.90;99.90
14172;DHT22;7165;52.388;4.928;2022-12-07T11:28:34;8.10;99.90
14172;DHT22;7165;52.388;4.928;2022-12-07T11:31:12;8.10;99.90
14172;DHT22;7165;52.388;4.928;2022-12-07T11:33:46;8.10;99.90
14172;DHT22;7165;52.388;4.928;2022-12-07T11:36:31;8.20;99.90
14172;DHT22;7165;52.388;4.928;2022-12-07T11:39:01;8.30;99.90
14172;DHT22;7165;52.388;4.928;2022-12-07T11:41:33;8.40;99.90
14172;DHT22;7165;52.388;4.928;2022-12-07T11:44:05;8.40;99.90
14172;DHT22;7165;52.388;4.928;2022-12-07T11:46:44;8.20;99.90
14172;DHT22;7165;52.388;4.928;2022-12-07T11:49:18;7.90;99.90
14172;DHT22;7165;52.388;4.928;2022-12-07T11:51:50;7.70;99.90
14172;DHT22;7165;52.388;4.928;2022-12-07T11:54:21;7.50;99.90
14172;DHT22;7165;52.388;4.928;2022-12-07T11:56:49;7.40;99.90
14172;DHT22;7165;52.388;4.928;2022-12-07T11:59:23;7.30;99.90
14172;DHT22;7165;52.388;4.928;2022-12-07T12:01:53;7.40;99.90
14172;DHT22;7165;52.388;4.928;2022-12-07T12:04:30;7.60;99.90
14172;DHT22;7165;52.388;4.928;2022-12-07T12:07:20;7.70;99.90
14172;DHT22;7165;52.388;4.928;2022-12-07T12:09:50;7.90;99.90
14172;DHT22;7165;52.388;4.928;2022-12-07T12:15:27;8.10;99.90
14172;DHT22;7165;52.388;4.928;2022-12-07T12:18:10;8.10;99.90
14172;DHT22;7165;52.388;4.928;2022-12-07T12:20:41;8.20;99.90
14172;DHT22;7165;52.388;4.928;2022-12-07T12:23:13;8.30;99.90
14172;DHT22;7165;52.388;4.928;2022-12-07T12:25:45;8.30;99.90
14172;DHT22;7165;52.388;4.928;2022-12-07T12:28:22;8.40;99.90
14172;DHT22;7165;52.388;4.928;2022-12-07T12:31:05;8.50;99.90
14172;DHT22;7165;52.388;4.928;2022-12-07T12:33:35;8.60;99.90
14172;DHT22;7165;52.388;4.928;2022-12-07T12:36:23;8.60;99.90
14172;DHT22;7165;52.388;4.928;2022-12-07T12:39:07;8.40;99.90
14172;DHT22;7165;52.388;4.928;2022-12-07T12:41:59;8.40;99.90
14172;DHT22;7165;52.388;4.928;2022-12-07T12:48:07;8.20;99.90
14172;DHT22;7165;52.388;4.928;2022-12-07T12:54:04;8.00;99.90
14172;DHT22;7165;52.388;4.928;2022-12-07T12:56:38;8.00;99.90
14172;DHT22;7165;52.388;4.928;2022-12-07T12:59:25;8.00;99.90
14172;DHT22;7165;52.388;4.928;2022-12-07T13:01:55;7.90;99.90
14172;DHT22;7165;52.388;4.928;2022-12-07T13:04:48;7.90;99.90
14172;DHT22;7165;52.388;4.928;2022-12-07T13:07:55;7.90;99.90
14172;DHT22;7165;52.388;4.928;2022-12-07T13:10:44;7.90;99.90
14172;DHT22;7165;52.388;4.928;2022-12-07T13:13:34;7.90;99.90
14172;DHT22;7165;52.388;4.928;2022-12-07T13:22:40;8.00;99.90
14172;DHT22;7165;52.388;4.928;2022-12-07T13:25:11;8.10;99.90
14172;DHT22;7165;52.388;4.928;2022-12-07T13:27:41;8.20;99.90
14172;DHT22;7165;52.388;4.928;2022-12-07T13:30:14;8.20;99.90
14172;DHT22;7165;52.388;4.928;2022-12-07T13:32:42;8.20;99.90
14172;DHT22;7165;52.388;4.928;2022-12-07T13:35:27;8.20;99.90
14172;DHT22;7165;52.388;4.928;2022-12-07T13:37:54;8.20;99.90
14172;DHT22;7165;52.388;4.928;2022-12-07T13:40:23;8.20;99.90
14172;DHT22;7165;52.388;4.928;2022-12-07T13:42:57;8.20;99.90
14172;DHT22;7165;52.388;4.928;2022-12-07T13:45:26;8.20;99.90
14172;DHT22;7165;52.388;4.928;2022-12-07T13:48:16;8.20;99.90
14172;DHT22;7165;52.388;4.928;2022-12-07T13:50:53;8.20;99.90
14172;DHT22;7165;52.388;4.928;2022-12-07T13:53:20;8.20;99.90
14172;DHT22;7165;52.388;4.928;2022-12-07T13:55:48;8.20;99.90
14172;DHT22;7165;52.388;4.928;2022-12-07T13:58:15;8.10;99.90
14172;DHT22;7165;52.388;4.928;2022-12-07T14:00:42;8.10;99.90
14172;DHT22;7165;52.388;4.928;2022-12-07T14:03:30;7.90;99.90
14172;DHT22;7165;52.388;4.928;2022-12-07T14:06:07;7.70;99.90
14172;DHT22;7165;52.388;4.928;2022-12-07T14:08:38;7.50;99.90
14172;DHT22;7165;52.388;4.928;2022-12-07T14:11:11;7.40;99.90
14172;DHT22;7165;52.388;4.928;2022-12-07T14:13:45;7.30;99.90
14172;DHT22;7165;52.388;4.928;2022-12-07T14:16:23;7.30;99.90
14172;DHT22;7165;52.388;4.928;2022-12-07T14:18:50;7.20;99.90
14172;DHT22;7165;52.388;4.928;2022-12-07T14:21:19;7.20;99.90
14172;DHT22;7165;52.388;4.928;2022-12-07T14:24:06;7.10;99.90
14172;DHT22;7165;52.388;4.928;2022-12-07T14:26:36;7.10;99.90
14172;DHT22;7165;52.388;4.928;2022-12-07T14:29:22;7.10;99.90
14172;DHT22;7165;52.388;4.928;2022-12-07T14:31:49;7.10;99.90
14172;DHT22;7165;52.388;4.928;2022-12-07T14:34:15;7.10;99.90
14172;DHT22;7165;52.388;4.928;2022-12-07T14:36:42;7.10;99.90
14172;DHT22;7165;52.388;4.928;2022-12-07T14:39:08;7.10;99.90
14172;DHT22;7165;52.388;4.928;2022-12-07T14:41:36;7.10;99.90
14172;DHT22;7165;52.388;4.928;2022-12-07T14:44:20;7.10;99.90
14172;DHT22;7165;52.388;4.928;2022-12-07T14:46:47;7.10;99.90
14172;DHT22;7165;52.388;4.928;2022-12-07T14:49:14;7.10;99.90
14172;DHT22;7165;52.388;4.928;2022-12-07T14:51:42;7.10;99.90
14172;DHT22;7165;52.388;4.928;2022-12-07T14:54:15;7.00;99.90
14172;DHT22;7165;52.388;4.928;2022-12-07T14:56:44;7.10;99.90
14172;DHT22;7165;52.388;4.928;2022-12-07T14:59:14;7.00;99.90
14172;DHT22;7165;52.388;4.928;2022-12-07T15:01:40;7.00;99.90
14172;DHT22;7165;52.388;4.928;2022-12-07T15:04:07;7.00;99.90
14172;DHT22;7165;52.388;4.928;2022-12-07T15:06:34;7.00;99.90
14172;DHT22;7165;52.388;4.928;2022-12-07T15:09:01;7.00;99.90
14172;DHT22;7165;52.388;4.928;2022-12-07T15:11:28;7.00;99.90
14172;DHT22;7165;52.388;4.928;2022-12-07T15:13:56;6.80;99.90
14172;DHT22;7165;52.388;4.928;2022-12-07T15:16:35;6.80;99.90
14172;DHT22;7165;52.388;4.928;2022-12-07T15:19:02;6.70;99.90
14172;DHT22;7165;52.388;4.928;2022-12-07T15:21:29;6.60;99.90
14172;DHT22;7165;52.388;4.928;2022-12-07T15:23:56;6.60;99.90
14172;DHT22;7165;52.388;4.928;2022-12-07T15:26:23;6.60;99.90
14172;DHT22;7165;52.388;4.928;2022-12-07T15:28:49;6.60;99.90
14172;DHT22;7165;52.388;4.928;2022-12-07T15:31:17;6.50;99.90
14172;DHT22;7165;52.388;4.928;2022-12-07T15:33:44;6.50;99.90
14172;DHT22;7165;52.388;4.928;2022-12-07T15:36:18;6.50;99.90
14172;DHT22;7165;52.388;4.928;2022-12-07T15:38:46;6.50;99.90
14172;DHT22;7165;52.388;4.928;2022-12-07T15:41:13;6.50;99.90
14172;DHT22;7165;52.388;4.928;2022-12-07T15:43:40;6.50;99.90
14172;DHT22;7165;52.388;4.928;2022-12-07T15:46:30;6.40;99.90
14172;DHT22;7165;52.388;4.928;2022-12-07T15:48:57;6.50;99.90
14172;DHT22;7165;52.388;4.928;2022-12-07T15:51:24;6.40;99.90
14172;DHT22;7165;52.388;4.928;2022-12-07T15:53:51;6.40;99.90
14172;DHT22;7165;52.388;4.928;2022-12-07T15:56:18;6.40;99.90
14172;DHT22;7165;52.388;4.928;2022-12-07T15:58:44;6.40;99.90
14172;DHT22;7165;52.388;4.928;2022-12-07T16:01:11;6.40;99.90
14172;DHT22;7165;52.388;4.928;2022-12-07T16:03:40;6.40;99.90
14172;DHT22;7165;52.388;4.928;2022-12-07T16:06:07;6.40;99.90
14172;DHT22;7165;52.388;4.928;2022-12-07T16:08:34;6.40;99.90
14172;DHT22;7165;52.388;4.928;2022-12-07T16:11:04;6.40;99.90
14172;DHT22;7165;52.388;4.928;2022-12-07T16:13:31;6.40;99.90
14172;DHT22;7165;52.388;4.928;2022-12-07T16:15:58;6.40;99.90
14172;DHT22;7165;52.388;4.928;2022-12-07T16:18:24;6.40;99.90
14172;DHT22;7165;52.388;4.928;2022-12-07T16:20:52;6.50;99.90
14172;DHT22;7165;52.388;4.928;2022-12-07T16:23:19;6.50;99.90
14172;DHT22;7165;52.388;4.928;2022-12-07T16:25:46;6.50;99.90
14172;DHT22;7165;52.388;4.928;2022-12-07T16:28:12;6.50;99.90
14172;DHT22;7165;52.388;4.928;2022-12-07T16:30:39;6.50;99.90
14172;DHT22;7165;52.388;4.928;2022-12-07T16:33:05;6.40;99.90
14172;DHT22;7165;52.388;4.928;2022-12-07T16:35:32;6.40;99.90
14172;DHT22;7165;52.388;4.928;2022-12-07T16:38:00;6.40;99.90
14172;DHT22;7165;52.388;4.928;2022-12-07T16:40:27;6.40;99.90
14172;DHT22;7165;52.388;4.928;2022-12-07T16:42:53;6.40;99.90
14172;DHT22;7165;52.388;4.928;2022-12-07T16:45:20;6.40;99.90